createdAt,value
2019-05-09T00:01:43.961Z,11.63
2019-05-09T00:04:14.038Z,9.80
2019-05-09T00:06:43.585Z,10.70
2019-05-09T00:09:13.910Z,11.10
2019-05-09T00:11:44.035Z,10.80
2019-05-09T00:14:13.757Z,9.67
2019-05-09T00:16:43.915Z,10.20
2019-05-09T00:19:13.681Z,10.60
2019-05-09T00:21:47.725Z,9.40
2019-05-09T00:24:17.127Z,9.20
2019-05-09T00:26:46.364Z,8.87
2019-05-09T00:29:33.484Z,10.57
2019-05-09T00:32:23.973Z,11.40
2019-05-09T00:34:54.946Z,8.90
2019-05-09T00:37:25.955Z,9.10
2019-05-09T00:39:55.311Z,10.37
2019-05-09T00:42:24.590Z,10.10
2019-05-09T00:44:55.511Z,8.97
2019-05-09T00:47:26.527Z,9.40
2019-05-09T00:49:55.855Z,10.07
2019-05-09T00:52:25.202Z,8.13
2019-05-09T00:54:54.572Z,11.17
2019-05-09T00:57:38.336Z,9.27
2019-05-09T01:00:14.532Z,12.60
2019-05-09T01:02:43.510Z,10.33
2019-05-09T01:05:13.840Z,10.47
2019-05-09T01:07:43.202Z,11.67
2019-05-09T01:10:14.478Z,11.13
2019-05-09T01:12:43.879Z,9.33
2019-05-09T01:15:13.858Z,10.20
2019-05-09T01:17:44.165Z,9.13
2019-05-09T01:20:14.770Z,9.03
2019-05-09T01:22:44.199Z,10.07
2019-05-09T01:25:13.764Z,9.03
2019-05-09T01:27:43.285Z,10.70
2019-05-09T01:30:13.562Z,9.77
2019-05-09T01:32:47.720Z,9.43
2019-05-09T01:35:17.043Z,9.03
2019-05-09T01:37:46.412Z,11.10
2019-05-09T01:40:16.783Z,9.57
2019-05-09T01:42:46.108Z,9.03
2019-05-09T01:45:15.523Z,10.57
2019-05-09T01:47:44.826Z,10.53
2019-05-09T01:50:14.518Z,10.07
2019-05-09T01:52:43.968Z,8.90
2019-05-09T01:55:14.195Z,9.67
2019-05-09T01:57:47.728Z,9.77
2019-05-09T02:00:15.252Z,9.43
2019-05-09T02:02:44.617Z,10.63
2019-05-09T02:05:14.208Z,8.73
2019-05-09T02:07:43.905Z,9.13
2019-05-09T02:10:14.008Z,8.80
2019-05-09T02:12:43.461Z,9.87
2019-05-09T02:15:14.445Z,10.13
2019-05-09T02:17:58.298Z,9.93
2019-05-09T02:20:16.572Z,8.47
2019-05-09T02:22:45.874Z,10.20
2019-05-09T02:25:15.327Z,8.90
2019-05-09T02:27:44.785Z,9.07
2019-05-09T02:30:15.471Z,10.03
2019-05-09T02:32:45.416Z,8.87
2019-05-09T02:35:15.082Z,9.90
2019-05-09T02:37:44.453Z,9.60
2019-05-09T02:40:14.320Z,9.93
2019-05-09T02:42:43.619Z,10.20
2019-05-09T02:45:13.490Z,10.63
2019-05-09T02:47:42.810Z,12.30
2019-05-09T02:50:12.865Z,8.70
2019-05-09T02:52:42.232Z,9.37
2019-05-09T02:55:11.920Z,9.33
2019-05-09T02:57:41.293Z,10.90
2019-05-09T03:00:21.906Z,9.80
2019-05-09T03:02:59.211Z,11.53
2019-05-09T03:05:29.748Z,8.20
2019-05-09T03:07:58.531Z,9.10
2019-05-09T03:10:29.319Z,10.00
2019-05-09T03:12:59.606Z,9.30
2019-05-09T03:15:29.569Z,10.77
2019-05-09T03:17:59.920Z,8.50
2019-05-09T03:20:49.222Z,11.23
2019-05-09T03:23:19.485Z,8.67
2019-05-09T03:25:49.105Z,9.23
2019-05-09T03:28:23.159Z,9.20
2019-05-09T03:30:59.268Z,9.57
2019-05-09T03:33:30.816Z,9.10
2019-05-09T03:35:59.248Z,9.90
2019-05-09T03:38:28.678Z,10.37
2019-05-09T03:40:58.151Z,10.50
2019-05-09T03:43:27.666Z,8.43
2019-05-09T03:45:58.823Z,8.77
2019-05-09T03:48:32.256Z,10.03
2019-05-09T03:51:01.560Z,8.77
2019-05-09T03:53:30.828Z,9.20
2019-05-09T03:56:01.887Z,9.67
2019-05-09T03:58:31.249Z,11.47
2019-05-09T04:01:00.545Z,9.00
2019-05-09T04:03:29.875Z,8.90
2019-05-09T04:06:02.876Z,10.50
2019-05-09T04:08:30.233Z,8.83
2019-05-09T04:10:59.646Z,8.13
2019-05-09T04:13:33.518Z,9.43
2019-05-09T04:16:02.873Z,11.50
2019-05-09T04:18:32.279Z,11.07
2019-05-09T04:21:01.838Z,10.00
2019-05-09T04:23:31.336Z,10.33
2019-05-09T04:26:02.751Z,10.90
2019-05-09T04:28:32.115Z,9.70
2019-05-09T04:31:01.421Z,9.33
2019-05-09T04:33:30.736Z,10.10
2019-05-09T04:36:00.035Z,9.47
2019-05-09T04:38:29.475Z,10.67
2019-05-09T04:40:58.890Z,8.83
2019-05-09T04:43:35.607Z,10.70
2019-05-09T04:46:01.945Z,10.63
2019-05-09T04:48:37.357Z,10.07
2019-05-09T04:51:07.812Z,9.33
2019-05-09T04:53:39.773Z,8.83
2019-05-09T04:56:27.884Z,9.93
2019-05-09T04:58:58.352Z,8.40
2019-05-09T05:01:47.730Z,9.07
2019-05-09T05:04:20.106Z,8.93
2019-05-09T05:06:49.454Z,9.07
2019-05-09T05:09:20.896Z,9.90
2019-05-09T05:11:49.880Z,8.30
2019-05-09T05:14:22.179Z,8.60
2019-05-09T05:16:58.225Z,7.73
2019-05-09T05:19:30.954Z,13.33
2019-05-09T05:21:59.454Z,9.77
2019-05-09T05:24:30.382Z,9.97
2019-05-09T05:26:59.808Z,11.03
2019-05-09T05:29:29.100Z,9.43
2019-05-09T05:32:00.000Z,10.67
2019-05-09T05:34:37.796Z,10.53
2019-05-09T05:37:07.613Z,10.20
2019-05-09T05:39:37.633Z,10.03
2019-05-09T05:42:08.329Z,12.07
2019-05-09T05:44:38.676Z,12.33
2019-05-09T05:47:09.868Z,10.23
2019-05-09T05:49:39.346Z,10.03
2019-05-09T05:52:08.712Z,11.97
2019-05-09T05:54:38.071Z,13.83
2019-05-09T05:57:08.490Z,17.07
2019-05-09T05:59:40.783Z,18.20
2019-05-09T06:02:09.027Z,14.83
2019-05-09T06:04:38.442Z,15.80
2019-05-09T06:07:08.211Z,17.07
2019-05-09T06:09:38.090Z,19.10
2019-05-09T06:12:08.457Z,21.47
2019-05-09T06:14:38.066Z,19.37
2019-05-09T06:17:08.101Z,19.27
2019-05-09T06:19:38.177Z,17.90
2019-05-09T06:22:08.429Z,19.37
2019-05-09T06:24:38.837Z,17.00
2019-05-09T06:27:10.488Z,21.83
2019-05-09T06:29:40.025Z,23.60
2019-05-09T06:32:09.393Z,23.20
2019-05-09T06:34:41.997Z,21.93
2019-05-09T06:37:09.929Z,25.00
2019-05-09T06:39:39.297Z,27.60
2019-05-09T06:42:09.325Z,27.83
2019-05-09T06:44:47.977Z,23.00
2019-05-09T06:47:19.038Z,23.77
2019-05-09T06:49:50.218Z,28.97
2019-05-09T06:52:28.043Z,22.17
2019-05-09T06:54:58.240Z,22.70
2019-05-09T06:57:28.242Z,25.27
2019-05-09T06:59:58.095Z,22.60
2019-05-09T07:02:32.064Z,22.20
2019-05-09T07:05:03.031Z,22.10
2019-05-09T07:07:37.421Z,20.70
2019-05-09T07:10:08.299Z,22.70
2019-05-09T07:12:38.019Z,20.77
2019-05-09T07:15:08.765Z,19.67
2019-05-09T07:17:38.798Z,22.37
2019-05-09T07:20:08.827Z,21.63
2019-05-09T07:22:39.898Z,22.73
2019-05-09T07:25:11.522Z,21.97
2019-05-09T07:27:42.835Z,22.50
2019-05-09T07:30:24.297Z,20.30
2019-05-09T07:33:13.666Z,20.37
2019-05-09T07:35:42.998Z,21.47
2019-05-09T07:38:12.439Z,22.90
2019-05-09T07:40:41.672Z,22.70
2019-05-09T07:43:10.994Z,21.87
2019-05-09T07:45:42.979Z,20.97
2019-05-09T07:48:12.296Z,22.10
2019-05-09T07:50:41.621Z,21.23
2019-05-09T07:53:11.036Z,22.60
2019-05-09T07:55:40.457Z,20.83
2019-05-09T07:58:09.812Z,19.40
2019-05-09T08:00:39.328Z,18.40
2019-05-09T08:03:12.949Z,19.00
2019-05-09T08:05:39.873Z,18.20
2019-05-09T08:08:12.153Z,16.70
2019-05-09T08:10:41.547Z,18.13
2019-05-09T08:13:12.123Z,16.23
2019-05-09T08:15:41.796Z,16.57
2019-05-09T08:18:11.178Z,13.87
2019-05-09T08:20:44.931Z,14.43
2019-05-09T08:23:14.441Z,18.47
2019-05-09T08:25:43.815Z,18.87
2019-05-09T08:28:13.220Z,18.63
2019-05-09T08:30:43.158Z,18.53
2019-05-09T08:33:12.465Z,16.80
2019-05-09T08:35:41.865Z,16.17
2019-05-09T08:38:11.240Z,13.77
2019-05-09T08:40:40.670Z,10.27
2019-05-09T08:43:10.009Z,11.57
2019-05-09T08:45:39.308Z,14.77
2019-05-09T08:48:09.389Z,12.33
2019-05-09T08:50:40.823Z,16.47
2019-05-09T08:53:11.833Z,16.83
2019-05-09T08:55:41.134Z,15.23
2019-05-09T08:58:10.417Z,15.93
2019-05-09T09:00:39.932Z,17.20
2019-05-09T09:03:09.349Z,18.87
2019-05-09T09:05:43.249Z,18.90
2019-05-09T09:08:12.122Z,14.73
2019-05-09T09:10:41.497Z,13.60
2019-05-09T09:13:10.912Z,14.63
2019-05-09T09:16:05.702Z,13.33
2019-05-09T09:18:11.519Z,13.90
2019-05-09T09:20:40.912Z,14.17
2019-05-09T09:23:10.314Z,13.43
2019-05-09T09:25:39.747Z,11.60
2019-05-09T09:28:09.230Z,12.50
2019-05-09T09:30:39.052Z,10.90
2019-05-09T09:33:11.567Z,10.80
2019-05-09T09:35:39.601Z,11.77
2019-05-09T09:38:09.573Z,11.87
2019-05-09T09:40:38.921Z,10.37
2019-05-09T09:43:09.441Z,10.73
2019-05-09T09:45:39.092Z,10.47
2019-05-09T09:48:09.214Z,11.10
2019-05-09T09:50:38.748Z,11.33
2019-05-09T09:53:09.120Z,8.87
2019-05-09T09:55:38.864Z,8.50
2019-05-09T09:58:08.543Z,10.23
2019-05-09T10:00:44.765Z,9.50
2019-05-09T10:03:14.523Z,9.63
2019-05-09T10:05:43.932Z,9.73
2019-05-09T10:08:14.079Z,15.80
2019-05-09T10:10:43.644Z,12.77
2019-05-09T10:13:13.063Z,11.90
2019-05-09T10:15:44.098Z,13.07
2019-05-09T10:18:20.016Z,11.53
2019-05-09T10:20:51.066Z,10.97
2019-05-09T10:23:21.638Z,10.50
2019-05-09T10:25:52.881Z,9.70
2019-05-09T10:28:22.251Z,9.63
2019-05-09T10:30:51.616Z,10.53
2019-05-09T10:33:21.064Z,10.63
2019-05-09T10:35:50.519Z,9.60
2019-05-09T10:38:19.978Z,9.67
2019-05-09T10:40:53.022Z,10.63
2019-05-09T10:43:38.662Z,9.47
2019-05-09T10:46:19.398Z,11.57
2019-05-09T10:48:50.649Z,9.10
2019-05-09T10:51:20.137Z,9.50
2019-05-09T10:53:49.580Z,12.70
2019-05-09T10:56:19.189Z,13.40
2019-05-09T10:58:48.576Z,11.90
2019-05-09T11:01:18.691Z,12.00
2019-05-09T11:03:48.706Z,19.03
2019-05-09T11:06:18.663Z,19.87
2019-05-09T11:08:49.074Z,12.53
2019-05-09T11:11:18.680Z,20.30
2019-05-09T11:13:48.626Z,15.43
2019-05-09T11:16:18.493Z,11.70
2019-05-09T11:18:48.622Z,11.03
2019-05-09T11:21:19.190Z,8.90
2019-05-09T11:23:49.253Z,8.47
2019-05-09T11:26:18.794Z,8.33
2019-05-09T11:28:48.162Z,7.40
2019-05-09T11:31:18.668Z,8.70
2019-05-09T11:33:48.717Z,13.47
2019-05-09T11:36:21.154Z,8.83
2019-05-09T11:38:49.908Z,13.20
2019-05-09T11:41:19.773Z,9.83
2019-05-09T11:43:49.349Z,12.87
2019-05-09T11:46:18.854Z,10.70
2019-05-09T11:48:48.064Z,10.03
2019-05-09T11:51:22.010Z,12.77
2019-05-09T11:53:48.951Z,11.53
2019-05-09T11:56:18.454Z,10.60
2019-05-09T11:58:48.495Z,19.83
2019-05-09T12:01:19.046Z,17.70
2019-05-09T12:03:52.120Z,12.37
2019-05-09T12:06:20.571Z,10.97
2019-05-09T12:08:50.422Z,10.00
2019-05-09T12:11:19.839Z,10.27
2019-05-09T12:13:49.206Z,9.57
2019-05-09T12:16:18.943Z,10.73
2019-05-09T12:18:49.101Z,12.90
2019-05-09T12:21:19.505Z,16.23
2019-05-09T12:23:49.898Z,12.10
2019-05-09T12:26:19.437Z,10.97
2019-05-09T12:28:48.989Z,10.63
2019-05-09T12:31:18.579Z,11.30
2019-05-09T12:33:48.616Z,13.57
2019-05-09T12:36:19.405Z,11.43
2019-05-09T12:38:50.238Z,12.90
2019-05-09T12:41:20.622Z,9.03
2019-05-09T12:43:49.934Z,11.30
2019-05-09T12:46:19.353Z,20.53
2019-05-09T12:48:48.727Z,24.53
2019-05-09T12:51:18.567Z,13.57
2019-05-09T12:53:48.718Z,12.07
2019-05-09T12:56:18.890Z,18.07
2019-05-09T12:58:48.411Z,29.27
2019-05-09T13:01:18.723Z,13.70
2019-05-09T13:03:48.730Z,14.63
2019-05-09T13:06:20.240Z,17.10
2019-05-09T13:08:49.432Z,14.27
2019-05-09T13:11:20.149Z,18.63
2019-05-09T13:13:49.962Z,17.53
2019-05-09T13:16:21.000Z,15.60
2019-05-09T13:19:03.957Z,10.73
2019-05-09T13:21:33.500Z,10.77
2019-05-09T13:24:03.015Z,9.43
2019-05-09T13:26:32.722Z,11.47
2019-05-09T13:29:02.117Z,14.27
2019-05-09T13:31:34.572Z,11.30
2019-05-09T13:34:02.687Z,13.10
2019-05-09T13:36:32.065Z,12.20
2019-05-09T13:39:05.021Z,12.50
2019-05-09T13:41:32.403Z,14.10
2019-05-09T13:44:05.251Z,12.97
2019-05-09T13:46:32.732Z,14.77
2019-05-09T13:49:11.600Z,16.73
2019-05-09T13:51:33.247Z,15.73
2019-05-09T13:54:02.577Z,14.70
2019-05-09T13:56:32.080Z,15.07
2019-05-09T13:59:01.381Z,14.43
2019-05-09T14:01:30.791Z,11.50
2019-05-09T14:04:00.439Z,12.10
2019-05-09T14:06:29.908Z,11.73
2019-05-09T14:08:59.942Z,10.57
2019-05-09T14:11:29.493Z,12.97
2019-05-09T14:13:58.862Z,13.83
2019-05-09T14:16:28.825Z,13.60
2019-05-09T14:19:00.650Z,13.03
2019-05-09T14:21:29.993Z,13.53
2019-05-09T14:24:10.706Z,16.23
2019-05-09T14:26:30.712Z,18.03
2019-05-09T14:29:00.097Z,15.27
2019-05-09T14:31:32.548Z,19.43
2019-05-09T14:34:01.226Z,17.27
2019-05-09T14:36:30.591Z,20.67
2019-05-09T14:39:00.057Z,16.23
2019-05-09T14:41:29.429Z,21.53
2019-05-09T14:43:59.903Z,19.20
2019-05-09T14:46:29.584Z,20.53
2019-05-09T14:48:59.412Z,18.70
2019-05-09T14:51:29.793Z,22.03
2019-05-09T14:53:59.719Z,22.53
2019-05-09T14:56:29.137Z,21.07
2019-05-09T14:58:58.602Z,23.57
2019-05-09T15:01:28.982Z,24.37
2019-05-09T15:03:58.906Z,21.03
2019-05-09T15:06:28.498Z,20.23
2019-05-09T15:08:58.329Z,27.27
2019-05-09T15:11:28.437Z,29.17
2019-05-09T15:13:58.646Z,30.37
2019-05-09T15:16:28.450Z,24.30
2019-05-09T15:18:58.561Z,23.83
2019-05-09T15:21:28.165Z,22.53
2019-05-09T15:23:59.082Z,19.73
2019-05-09T15:26:29.213Z,21.93
2019-05-09T15:28:58.749Z,19.90
2019-05-09T15:31:28.832Z,18.07
2019-05-09T15:33:58.400Z,21.17
2019-05-09T15:36:27.768Z,22.57
2019-05-09T15:38:59.122Z,20.63
2019-05-09T15:41:28.399Z,21.90
2019-05-09T15:43:58.033Z,19.93
2019-05-09T15:46:29.159Z,22.07
2019-05-09T15:48:58.532Z,20.97
2019-05-09T15:51:28.074Z,21.07
2019-05-09T15:53:57.887Z,22.37
2019-05-09T15:56:28.823Z,21.07
2019-05-09T15:58:58.265Z,21.63
2019-05-09T16:01:27.974Z,27.20
2019-05-09T16:03:57.532Z,29.27
2019-05-09T16:06:32.581Z,27.47
2019-05-09T16:08:58.646Z,33.07
2019-05-09T16:11:28.673Z,35.23
2019-05-09T16:13:58.164Z,25.97
2019-05-09T16:16:28.611Z,23.57
2019-05-09T16:18:58.428Z,23.30
2019-05-09T16:21:28.030Z,22.87
2019-05-09T16:23:59.311Z,21.40
2019-05-09T16:26:29.151Z,21.43
2019-05-09T16:28:58.646Z,21.77
2019-05-09T16:31:28.254Z,19.60
2019-05-09T16:33:58.808Z,23.30
2019-05-09T16:36:28.385Z,22.97
2019-05-09T16:38:58.390Z,22.07
2019-05-09T16:41:28.165Z,24.87
2019-05-09T16:43:58.331Z,25.60
2019-05-09T16:46:28.610Z,25.63
2019-05-09T16:48:58.308Z,26.60
2019-05-09T16:51:28.582Z,29.17
2019-05-09T16:53:58.552Z,29.67
2019-05-09T16:56:28.855Z,30.90
2019-05-09T16:58:58.543Z,30.57
2019-05-09T17:01:28.488Z,28.57
2019-05-09T17:03:58.278Z,33.17
2019-05-09T17:06:27.653Z,28.57
2019-05-09T17:08:58.358Z,21.43
2019-05-09T17:11:28.109Z,20.90
2019-05-09T17:13:58.354Z,19.43
2019-05-09T17:16:28.433Z,21.20
2019-05-09T17:18:58.329Z,18.47
2019-05-09T17:21:29.440Z,17.90
2019-05-09T17:24:00.315Z,20.57
2019-05-09T17:26:29.841Z,20.53
2019-05-09T17:29:00.294Z,21.90
2019-05-09T17:31:29.900Z,20.20
2019-05-09T17:33:59.274Z,19.33
2019-05-09T17:36:28.749Z,19.80
2019-05-09T17:38:58.516Z,21.50
2019-05-09T17:41:31.962Z,20.20
2019-05-09T17:44:01.304Z,19.60
2019-05-09T17:46:30.671Z,19.97
2019-05-09T17:49:00.142Z,21.63
2019-05-09T17:51:33.933Z,23.27
2019-05-09T17:54:03.876Z,22.90
2019-05-09T17:56:34.754Z,22.70
2019-05-09T17:59:08.757Z,21.80
2019-05-09T18:01:38.260Z,22.50
2019-05-09T18:04:09.194Z,29.53
2019-05-09T18:06:38.808Z,26.10
2019-05-09T18:09:08.939Z,25.73
2019-05-09T18:11:38.463Z,28.23
2019-05-09T18:14:08.348Z,27.17
2019-05-09T18:16:39.036Z,27.43
2019-05-09T18:19:09.655Z,25.53
2019-05-09T18:21:50.231Z,24.87
2019-05-09T18:24:10.206Z,27.97
2019-05-09T18:26:39.755Z,26.07
2019-05-09T18:29:09.160Z,23.50
2019-05-09T18:31:52.548Z,24.07
2019-05-09T18:34:22.116Z,25.60
2019-05-09T18:36:51.563Z,26.57
2019-05-09T18:39:23.075Z,29.00
2019-05-09T18:41:52.783Z,31.13
2019-05-09T18:44:22.159Z,27.63
2019-05-09T18:46:51.669Z,27.00
2019-05-09T18:49:21.156Z,27.73
2019-05-09T18:52:02.659Z,27.50
2019-05-09T18:54:22.004Z,29.23
2019-05-09T18:56:57.318Z,29.07
2019-05-09T18:59:32.226Z,28.87
2019-05-09T19:02:05.998Z,26.20
2019-05-09T19:04:35.797Z,26.17
2019-05-09T19:07:21.370Z,26.20
2019-05-09T19:09:37.452Z,24.23
2019-05-09T19:12:07.312Z,25.30
2019-05-09T19:14:37.160Z,25.87
2019-05-09T19:17:10.029Z,25.57
2019-05-09T19:19:41.458Z,23.10
2019-05-09T19:22:22.101Z,22.47
2019-05-09T19:24:42.654Z,20.60
2019-05-09T19:27:12.149Z,21.17
2019-05-09T19:29:41.669Z,19.93
2019-05-09T19:32:11.104Z,20.57
2019-05-09T19:34:40.668Z,21.40
2019-05-09T19:37:10.971Z,20.43
2019-05-09T19:39:40.593Z,20.73
2019-05-09T19:42:10.309Z,20.57
2019-05-09T19:44:39.911Z,20.90
2019-05-09T19:47:09.724Z,20.17
2019-05-09T19:49:39.115Z,20.60
2019-05-09T19:52:08.625Z,21.03
2019-05-09T19:54:38.183Z,22.87
2019-05-09T19:57:08.436Z,20.93
2019-05-09T19:59:37.920Z,21.37
2019-05-09T20:02:07.706Z,22.30
2019-05-09T20:04:37.336Z,20.93
2019-05-09T20:07:07.203Z,21.97
2019-05-09T20:09:55.956Z,23.57
2019-05-09T20:12:33.561Z,21.83
2019-05-09T20:15:03.732Z,23.57
2019-05-09T20:17:33.542Z,22.30
2019-05-09T20:20:06.420Z,22.60
2019-05-09T20:22:36.072Z,23.10
2019-05-09T20:25:07.314Z,21.57
2019-05-09T20:27:36.822Z,21.83
2019-05-09T20:30:08.165Z,22.67
2019-05-09T20:32:38.078Z,22.63
2019-05-09T20:35:08.268Z,21.67
2019-05-09T20:37:38.639Z,18.37
2019-05-09T20:40:08.872Z,21.00
2019-05-09T20:42:39.058Z,19.73
2019-05-09T20:45:09.057Z,20.37
2019-05-09T20:47:38.911Z,18.03
2019-05-09T20:50:09.066Z,18.07
2019-05-09T20:52:38.718Z,19.17
2019-05-09T20:55:10.273Z,20.77
2019-05-09T20:57:40.221Z,22.57
2019-05-09T21:00:10.727Z,24.50
2019-05-09T21:02:40.684Z,24.13
2019-05-09T21:05:11.002Z,22.90
2019-05-09T21:07:40.784Z,24.57
2019-05-09T21:10:10.681Z,24.07
2019-05-09T21:12:40.474Z,26.60
2019-05-09T21:15:10.640Z,25.63
2019-05-09T21:17:40.282Z,25.77
2019-05-09T21:20:10.227Z,25.77
2019-05-09T21:22:40.413Z,24.27
2019-05-09T21:25:10.258Z,27.83
2019-05-09T21:27:39.867Z,26.57
2019-05-09T21:30:10.027Z,29.17
2019-05-09T21:32:39.498Z,28.33
2019-05-09T21:35:09.121Z,29.13
2019-05-09T21:37:38.544Z,29.43
2019-05-09T21:40:09.025Z,30.57
2019-05-09T21:42:38.491Z,29.33
2019-05-09T21:45:08.550Z,30.40
2019-05-09T21:47:37.993Z,26.50
2019-05-09T21:50:08.644Z,29.77
2019-05-09T21:52:38.021Z,31.23
2019-05-09T21:55:08.037Z,28.23
2019-05-09T21:57:37.415Z,28.13
2019-05-09T22:00:15.414Z,27.57
2019-05-09T22:02:45.027Z,32.57
2019-05-09T22:05:14.444Z,33.23
2019-05-09T22:07:43.864Z,32.37
2019-05-09T22:10:14.140Z,31.93
2019-05-09T22:12:43.681Z,36.20
2019-05-09T22:15:15.835Z,33.30
2019-05-09T22:17:45.342Z,36.23
2019-05-09T22:20:16.309Z,39.40
2019-05-09T22:22:46.104Z,38.90
2019-05-09T22:25:16.081Z,35.00
2019-05-09T22:27:45.934Z,38.87
2019-05-09T22:30:16.312Z,38.90
2019-05-09T22:32:45.679Z,35.43
2019-05-09T22:35:15.648Z,35.50
2019-05-09T22:37:45.152Z,33.27
2019-05-09T22:40:15.055Z,36.90
2019-05-09T22:42:46.229Z,35.70
2019-05-09T22:45:15.956Z,37.53
2019-05-09T22:47:45.321Z,34.97
2019-05-09T22:50:14.777Z,27.67
2019-05-09T22:52:44.375Z,31.67
2019-05-09T22:55:14.690Z,35.00
2019-05-09T22:57:44.150Z,36.73
2019-05-09T23:00:15.673Z,35.43
2019-05-09T23:02:45.070Z,29.97
2019-05-09T23:05:14.465Z,30.63
2019-05-09T23:07:43.877Z,29.77
2019-05-09T23:10:13.254Z,28.97
2019-05-09T23:12:42.719Z,27.13
2019-05-09T23:15:14.254Z,26.73
2019-05-09T23:17:45.436Z,27.43
2019-05-09T23:20:22.792Z,26.97
2019-05-09T23:22:52.165Z,27.27
2019-05-09T23:25:21.780Z,24.93
2019-05-09T23:27:51.214Z,25.20
2019-05-09T23:30:20.629Z,23.13
2019-05-09T23:32:50.006Z,23.83
2019-05-09T23:35:19.452Z,24.43
2019-05-09T23:37:48.811Z,26.07
2019-05-09T23:40:18.356Z,27.63
2019-05-09T23:42:47.803Z,24.83
2019-05-09T23:45:17.284Z,16.70
2019-05-09T23:47:46.603Z,16.30
2019-05-09T23:50:16.026Z,14.37
2019-05-09T23:52:45.408Z,15.93
2019-05-09T23:55:32.746Z,14.97
2019-05-09T23:58:20.298Z,10.20
